Flight Track Log - Related Links

Times and Time Zones

All times are in EDT time to prevent confusion due to time zone crossing. See the N367ER flight status page for this flight to view local times or setup timezone preferences in your user account.

Time Position Orientation Groundspeed Altitude Reporting Facility
EDT Latitude Longitude Course Direction KTS MPH feet Rate Location/Type
Tue 03:27:06 PM 38.6511 -90.6158 256° West 159 183 1,200  Level FAA TRACON SMA TRACON (SMA)
Tue 03:27:46 PM 38.6425 -90.6611 232° Southwest 192 221 2,400 1,111 Climbing FAA TRACON SMA TRACON (SMA)
Tue 03:28:27 PM 38.6225 -90.6939 160° South 218 251 2,700 900 Climbing FAA TRACON SMA TRACON (SMA)
Tue 03:29:06 PM 38.5819 -90.6747 156° South 224 258 3,600 2,051 Climbing FAA TRACON SMA TRACON (SMA)
Tue 03:29:46 PM 38.5428 -90.6522 155° Southeast 223 257 5,400 2,700 Climbing FAA TRACON SMA TRACON (SMA)
Tue 03:30:26 PM 38.5086 -90.6322 155° Southeast 224 258 7,200 2,786 Climbing FAA TRACON SMA TRACON (SMA)
Tue 03:31:10 PM 38.4661 -90.6064 154° Southeast 218 251 9,300 2,475 Climbing FAA TRACON SMA TRACON (SMA)
Tue 03:31:46 PM 38.4303 -90.5836 153° Southeast 231 266 10,500 2,053 Climbing FAA TRACON SMA TRACON (SMA)
Tue 03:32:26 PM 38.3889 -90.5569 152° Southeast 243 280 11,900 1,950 Climbing FAA TRACON SMA TRACON (SMA)
Tue 03:33:06 PM 38.3497 -90.5306 153° Southeast 257 296 13,100 1,950 Climbing FAA TRACON SMA TRACON (SMA)
Tue 03:33:46 PM 38.3044 -90.5017 164° South 268 308 14,500 2,000 Climbing FAA TRACON SMA TRACON (SMA)
Tue 03:34:27 PM 38.2561 -90.4839 192° South 273 314 15,800 1,725 Climbing FAA TRACON SMA TRACON (SMA)
Tue 03:35:06 PM 38.2100 -90.4964 188° South 278 320 16,800 1,443 Climbing FAA TRACON SMA TRACON (SMA)
Tue 03:35:46 PM 38.1539 -90.5064 184° South 299 344 17,700 1,500 Climbing FAA TRACON SMA TRACON (SMA)
Tue 03:36:26 PM 38.0939 -90.5114 187° South 312 359 18,800 1,500 Climbing FAA TRACON SMA TRACON (SMA)
Tue 03:37:06 PM 38.0400 -90.5194 173° South 317 365 19,700 1,425 Climbing FAA TRACON SMA TRACON (SMA)
Tue 03:37:46 PM 37.9786 -90.5103 141° Southeast 325 374 20,700 963 Climbing FAA TRACON SMA TRACON (SMA)
Tue 03:38:27 PM 37.9253 -90.4553 148° Southeast 351 404 21,000 222 Climbing FAA TRACON SMA TRACON (SMA)
Tue 03:39:07 PM 37.8708 -90.4114 143° Southeast 374 430 21,000  Level FAA TRACON SMA TRACON (SMA)
Tue 03:39:47 PM 37.8125 -90.3561 142° Southeast 386 444 21,000  Level FAA TRACON SMA TRACON (SMA)
Tue 03:40:27 PM 37.7531 -90.2975 204° Southwest 386 444 21,000  Level FAA TRACON SMA TRACON (SMA)
Tue 03:41:02 PM 37.7206 -90.3158 143° Southeast 377 434 21,000  Level Kansas City Center
Tue 03:42:02 PM 37.6364 -90.2364 143° Southeast 389 448 21,000  Level Kansas City Center
Tue 03:43:46 PM 37.4775 -90.0850 144° Southeast 372 428 21,000  Level Memphis Center
Tue 03:44:46 PM 37.3878 -90.0019 143° Southeast 384 442 21,000  Level Memphis Center
Tue 03:45:46 PM 37.3000 -89.9189 143° Southeast 391 450 21,000  Level Memphis Center
Tue 03:46:46 PM 37.2142 -89.8386 143° Southeast 391 450 21,000  Level Memphis Center
Tue 03:47:46 PM 37.1264 -89.7558 144° Southeast 391 450 21,000  Level Memphis Center
Tue 03:48:46 PM 37.0425 -89.6786 142° Southeast 386 444 21,000  Level Memphis Center
Tue 03:49:46 PM 36.9567 -89.5961 144° Southeast 386 444 21,000  Level Memphis Center
Tue 03:50:46 PM 36.8706 -89.5167 143° Southeast 386 444 21,000  Level Memphis Center
Tue 03:51:46 PM 36.7847 -89.4372 143° Southeast 386 444 21,000  Level Memphis Center
Tue 03:52:46 PM 36.6986 -89.3556 143° Southeast 386 444 21,000  Level Memphis Center
Tue 03:53:46 PM 36.6103 -89.2739 144° Southeast 391 450 21,000  Level Memphis Center
Tue 03:54:46 PM 36.5283 -89.2000 142° Southeast 391 450 21,000  Level Memphis Center
Tue 03:55:46 PM 36.4422 -89.1161 145° Southeast 391 450 21,000  Level Memphis Center
Tue 03:56:46 PM 36.3517 -89.0375 144° Southeast 391 450 21,000  Level Memphis Center
Tue 03:57:46 PM 36.2633 -88.9567 145° Southeast 391 450 21,000  Level Memphis Center
Tue 03:58:46 PM 36.1769 -88.8811 143° Southeast 391 450 21,000 -600 Level Memphis Center
Tue 03:59:46 PM 36.0903 -88.8006 144° Southeast 391 450 19,800 -1,350 Descending Memphis Center
Tue 04:00:46 PM 36.0061 -88.7250 143° Southeast 391 450 18,300 -1,400 Descending Memphis Center
Tue 04:01:46 PM 35.9258 -88.6497 145° Southeast 384 442 17,000 -1,400 Descending Memphis Center
Tue 04:02:46 PM 35.8433 -88.5772 143° Southeast 374 430 15,500 -1,500 Descending Memphis Center
Tue 04:03:46 PM 35.7653 -88.5047 145° Southeast 362 417 14,000 -1,500 Descending Memphis Center
Tue 04:04:46 PM 35.6892 -88.4400 144° Southeast 357 411 12,500 -1,550 Descending Memphis Center
Tue 04:05:46 PM 35.6108 -88.3703 144° Southeast 345 397 10,900 -1,550 Descending Memphis Center
Tue 04:06:46 PM 35.5389 -88.3058 143° Southeast 334 384 9,400 -1,500 Descending Memphis Center
Tue 04:07:46 PM 35.4669 -88.2386 146° Southeast 334 384 7,900 -1,200 Descending Memphis Center
Tue 04:08:46 PM 35.3950 -88.1794 144° Southeast 328 377 7,000 -450 Descending Memphis Center
Tue 04:09:46 PM 35.3250 -88.1175 148° Southeast 322 371 7,000 -700 Level Memphis Center
Tue 04:10:46 PM 35.2489 -88.0586 156° South 309 356 5,600 -1,500 Descending Memphis Center
Tue 04:11:46 PM 35.1750 -88.0175 155° Southeast 298 343 4,000 -1,150 Descending Memphis Center
Tue 04:12:46 PM 35.1097 -87.9811 155° Southeast 280 322 3,300 -700 Descending Memphis Center

Login

Don't have an account? Register now (free) for customized features, flight alerts, and more!